Aviation Digital Data Service (ADDS)

Output produced by METARs form (1307 UTC 24 August 2019)
found at http://www.aviationweather.gov/metar/data/
 
METAR text: FABL 241300Z 29006KT 240V320 CAVOK 25/M07 Q1027 NOSIG
Conditions at: FABL (BLOEMFONTEIN/HER, ZA) observed 1300 UTC 24 August 2019
Temperature: 25.0°C (77°F)
Dewpoint: -7.0°C (19°F) [RH = 11%]
Pressure (altimeter): 30.32 inches Hg (1027.0 mb)
Winds: from the WNW (290 degrees) at 7 MPH (6 knots; 3.1 m/s)
Visibility: 6 or more miles (10+ km)
Ceiling: ceiling and visibility are OK
Clouds: unknown
Weather: no significant weather observed at this time

METAR text: FABL 241200Z 32010KT 290V020 CAVOK 24/M08 Q1028 NOSIG
Conditions at: FABL (BLOEMFONTEIN/HER, ZA) observed 1200 UTC 24 August 2019
Temperature: 24.0°C (75°F)
Dewpoint: -8.0°C (18°F) [RH = 11%]
Pressure (altimeter): 30.35 inches Hg (1028.0 mb)
Winds: from the NW (320 degrees) at 12 MPH (10 knots; 5.1 m/s)
Visibility: 6 or more miles (10+ km)
Ceiling: ceiling and visibility are OK
Clouds: unknown
Weather: no significant weather observed at this time

METAR text: FABL 241100Z 29009KT 260V320 CAVOK 24/M07 Q1029 NOSIG
Conditions at: FABL (BLOEMFONTEIN/HER, ZA) observed 1100 UTC 24 August 2019
Temperature: 24.0°C (75°F)
Dewpoint: -7.0°C (19°F) [RH = 12%]
Pressure (altimeter): 30.38 inches Hg (1029.0 mb)
Winds: from the WNW (290 degrees) at 10 MPH (9 knots; 4.6 m/s)
Visibility: 6 or more miles (10+ km)
Ceiling: ceiling and visibility are OK
Clouds: unknown
Weather: no significant weather observed at this time

METAR text: FABL 241000Z VRB04KT CAVOK 23/M04 Q1030 NOSIG
Conditions at: FABL (BLOEMFONTEIN/HER, ZA) observed 1000 UTC 24 August 2019
Temperature: 23.0°C (73°F)
Dewpoint: -4.0°C (25°F) [RH = 16%]
Pressure (altimeter): 30.41 inches Hg (1030.0 mb)
Winds: variable direction winds at 5 MPH (4 knots; 2.1 m/s)
Visibility: 6 or more miles (10+ km)
Ceiling: ceiling and visibility are OK
Clouds: unknown
Weather: no significant weather observed at this time

METAR text: FABL 240900Z 35003KT 280V060 CAVOK 21/M03 Q1031 NOSIG
Conditions at: FABL (BLOEMFONTEIN/HER, ZA) observed 0900 UTC 24 August 2019
Temperature: 21.0°C (70°F)
Dewpoint: -3.0°C (27°F) [RH = 20%]
Pressure (altimeter): 30.44 inches Hg (1031.0 mb)
Winds: from the N (350 degrees) at 3 MPH (3 knots; 1.5 m/s)
Visibility: 6 or more miles (10+ km)
Ceiling: ceiling and visibility are OK
Clouds: unknown
Weather: no significant weather observed at this time

METAR text: FABL 240800Z 05003KT 340V120 CAVOK 18/M04 Q1031 NOSIG
Conditions at: FABL (BLOEMFONTEIN/HER, ZA) observed 0800 UTC 24 August 2019
Temperature: 18.0°C (64°F)
Dewpoint: -4.0°C (25°F) [RH = 22%]
Pressure (altimeter): 30.44 inches Hg (1031.0 mb)
Winds: from the NE (50 degrees) at 3 MPH (3 knots; 1.5 m/s)
Visibility: 6 or more miles (10+ km)
Ceiling: ceiling and visibility are OK
Clouds: unknown
Weather: no significant weather observed at this time

METAR text: FABL 240700Z 06005KT 020V080 CAVOK 14/M05 Q1031 NOSIG
Conditions at: FABL (BLOEMFONTEIN/HER, ZA) observed 0700 UTC 24 August 2019
Temperature: 14.0°C (57°F)
Dewpoint: -5.0°C (23°F) [RH = 26%]
Pressure (altimeter): 30.44 inches Hg (1031.0 mb)
Winds: from the ENE (60 degrees) at 6 MPH (5 knots; 2.6 m/s)
Visibility: 6 or more miles (10+ km)
Ceiling: ceiling and visibility are OK
Clouds: unknown
Weather: no significant weather observed at this time

METAR text: FABL 240600Z 00000KT CAVOK 10/M06 Q1030 NOSIG
Conditions at: FABL (BLOEMFONTEIN/HER, ZA) observed 0600 UTC 24 August 2019
Temperature: 10.0°C (50°F)
Dewpoint: -6.0°C (21°F) [RH = 32%]
Pressure (altimeter): 30.41 inches Hg (1030.0 mb)
Winds: calm
Visibility: 6 or more miles (10+ km)
Ceiling: ceiling and visibility are OK
Clouds: unknown
Weather: no significant weather observed at this time

METAR text: FABL 240543Z VRB02KT CAVOK 08/M05 Q1031 NOSIG
Conditions at: FABL (BLOEMFONTEIN/HER, ZA) observed 0543 UTC 24 August 2019
Temperature: 8.0°C (46°F)
Dewpoint: -5.0°C (23°F) [RH = 39%]
Pressure (altimeter): 30.44 inches Hg (1031.0 mb)
Winds: variable direction winds at 2 MPH (2 knots; 1.0 m/s)
Visibility: 6 or more miles (10+ km)
Ceiling: ceiling and visibility are OK
Clouds: unknown
Weather: no significant weather observed at this time

METAR text: FABL 240518Z 25003KT CAVOK 04/M05 Q1031 NOSIG
Conditions at: FABL (BLOEMFONTEIN/HER, ZA) observed 0518 UTC 24 August 2019
Temperature: 4.0°C (39°F)
Dewpoint: -5.0°C (23°F) [RH = 52%]
Pressure (altimeter): 30.44 inches Hg (1031.0 mb)
Winds: from the WSW (250 degrees) at 3 MPH (3 knots; 1.5 m/s)
Visibility: 6 or more miles (10+ km)
Ceiling: ceiling and visibility are OK
Clouds: unknown
Weather: no significant weather observed at this time

METAR text: FABL 240500Z 23002KT CAVOK 02/M05 Q1031 NOSIG
Conditions at: FABL (BLOEMFONTEIN/HER, ZA) observed 0500 UTC 24 August 2019
Temperature: 2.0°C (36°F)
Dewpoint: -5.0°C (23°F) [RH = 60%]
Pressure (altimeter): 30.44 inches Hg (1031.0 mb)
Winds: from the SW (230 degrees) at 2 MPH (2 knots; 1.0 m/s)
Visibility: 6 or more miles (10+ km)
Ceiling: ceiling and visibility are OK
Clouds: unknown
Weather: no significant weather observed at this time

METAR text: FABL 240400Z VRB02KT CAVOK 01/M06 Q1030 NOSIG
Conditions at: FABL (BLOEMFONTEIN/HER, ZA) observed 0400 UTC 24 August 2019
Temperature: 1.0°C (34°F)
Dewpoint: -6.0°C (21°F) [RH = 59%]
Pressure (altimeter): 30.41 inches Hg (1030.0 mb)
Winds: variable direction winds at 2 MPH (2 knots; 1.0 m/s)
Visibility: 6 or more miles (10+ km)
Ceiling: ceiling and visibility are OK
Clouds: unknown
Weather: no significant weather observed at this time

METAR text: FABL 240300Z AUTO VRB02KT 9999 ///////// 02/M06 Q1030
Conditions at: FABL (BLOEMFONTEIN/HER, ZA) observed 0300 UTC 24 August 2019
Temperature: 2.0°C (36°F)
Dewpoint: -6.0°C (21°F) [RH = 55%]
Pressure (altimeter): 30.41 inches Hg (1030.0 mb)
Winds: variable direction winds at 2 MPH (2 knots; 1.0 m/s)
Visibility: 6 or more miles (10+ km)
Ceiling: unknown
Clouds: missing
Weather: no significant weather observed at this time

METAR text: FABL 240200Z AUTO 18002KT 9999 ///////// 03/M04 Q1030
Conditions at: FABL (BLOEMFONTEIN/HER, ZA) observed 0200 UTC 24 August 2019
Temperature: 3.0°C (37°F)
Dewpoint: -4.0°C (25°F) [RH = 60%]
Pressure (altimeter): 30.41 inches Hg (1030.0 mb)
Winds: from the S (180 degrees) at 2 MPH (2 knots; 1.0 m/s)
Visibility: 6 or more miles (10+ km)
Ceiling: unknown
Clouds: missing
Weather: no significant weather observed at this time

METAR text: FABL 240100Z AUTO 21002KT 9999 ///////// 04/M06 Q1030
Conditions at: FABL (BLOEMFONTEIN/HER, ZA) observed 0100 UTC 24 August 2019
Temperature: 4.0°C (39°F)
Dewpoint: -6.0°C (21°F) [RH = 48%]
Pressure (altimeter): 30.41 inches Hg (1030.0 mb)
Winds: from the SSW (210 degrees) at 2 MPH (2 knots; 1.0 m/s)
Visibility: 6 or more miles (10+ km)
Ceiling: unknown
Clouds: missing
Weather: no significant weather observed at this time

METAR text: FABL 240000Z AUTO VRB01KT 9999 ///////// 04/M06 Q1031
Conditions at: FABL (BLOEMFONTEIN/HER, ZA) observed 0000 UTC 24 August 2019
Temperature: 4.0°C (39°F)
Dewpoint: -6.0°C (21°F) [RH = 48%]
Pressure (altimeter): 30.44 inches Hg (1031.0 mb)
Winds: variable direction winds at 1 MPH (1 knots; 0.5 m/s)
Visibility: 6 or more miles (10+ km)
Ceiling: unknown
Clouds: missing
Weather: no significant weather observed at this time

METAR text: FABL 232300Z AUTO 15003KT 9999 ///////// 06/M05 Q1031
Conditions at: FABL (BLOEMFONTEIN/HER, ZA) observed 2300 UTC 23 August 2019
Temperature: 6.0°C (43°F)
Dewpoint: -5.0°C (23°F) [RH = 45%]
Pressure (altimeter): 30.44 inches Hg (1031.0 mb)
Winds: from the SSE (150 degrees) at 3 MPH (3 knots; 1.5 m/s)
Visibility: 6 or more miles (10+ km)
Ceiling: unknown
Clouds: missing
Weather: no significant weather observed at this time

METAR text: FABL 232200Z AUTO 23002KT 9999 ///////// 07/M06 Q1031
Conditions at: FABL (BLOEMFONTEIN/HER, ZA) observed 2200 UTC 23 August 2019
Temperature: 7.0°C (45°F)
Dewpoint: -6.0°C (21°F) [RH = 39%]
Pressure (altimeter): 30.44 inches Hg (1031.0 mb)
Winds: from the SW (230 degrees) at 2 MPH (2 knots; 1.0 m/s)
Visibility: 6 or more miles (10+ km)
Ceiling: unknown
Clouds: missing
Weather: no significant weather observed at this time

METAR text: FABL 232100Z AUTO 26003KT 9999 ///////// 07/M06 Q1031
Conditions at: FABL (BLOEMFONTEIN/HER, ZA) observed 2100 UTC 23 August 2019
Temperature: 7.0°C (45°F)
Dewpoint: -6.0°C (21°F) [RH = 39%]
Pressure (altimeter): 30.44 inches Hg (1031.0 mb)
Winds: from the W (260 degrees) at 3 MPH (3 knots; 1.5 m/s)
Visibility: 6 or more miles (10+ km)
Ceiling: unknown
Clouds: missing
Weather: no significant weather observed at this time

METAR text: FABL 232000Z AUTO 14003KT 100V170 9999 ///////// 09/M04 Q1031
Conditions at: FABL (BLOEMFONTEIN/HER, ZA) observed 2000 UTC 23 August 2019
Temperature: 9.0°C (48°F)
Dewpoint: -4.0°C (25°F) [RH = 40%]
Pressure (altimeter): 30.44 inches Hg (1031.0 mb)
Winds: from the SE (140 degrees) at 3 MPH (3 knots; 1.5 m/s)
Visibility: 6 or more miles (10+ km)
Ceiling: unknown
Clouds: missing
Weather: no significant weather observed at this time

METAR text: FABL 231900Z AUTO 30003KT 9999 ///////// 10/M05 Q1031
Conditions at: FABL (BLOEMFONTEIN/HER, ZA) observed 1900 UTC 23 August 2019
Temperature: 10.0°C (50°F)
Dewpoint: -5.0°C (23°F) [RH = 34%]
Pressure (altimeter): 30.44 inches Hg (1031.0 mb)
Winds: from the WNW (300 degrees) at 3 MPH (3 knots; 1.5 m/s)
Visibility: 6 or more miles (10+ km)
Ceiling: unknown
Clouds: missing
Weather: no significant weather observed at this time

METAR text: FABL 231800Z 01001KT CAVOK 14/M06 Q1031 NOSIG
Conditions at: FABL (BLOEMFONTEIN/HER, ZA) observed 1800 UTC 23 August 2019
Temperature: 14.0°C (57°F)
Dewpoint: -6.0°C (21°F) [RH = 24%]
Pressure (altimeter): 30.44 inches Hg (1031.0 mb)
Winds: from the N (10 degrees) at 1 MPH (1 knots; 0.5 m/s)
Visibility: 6 or more miles (10+ km)
Ceiling: ceiling and visibility are OK
Clouds: unknown
Weather: no significant weather observed at this time

METAR text: FABL 231700Z 26005KT CAVOK 14/M06 Q1030 NOSIG
Conditions at: FABL (BLOEMFONTEIN/HER, ZA) observed 1700 UTC 23 August 2019
Temperature: 14.0°C (57°F)
Dewpoint: -6.0°C (21°F) [RH = 24%]
Pressure (altimeter): 30.41 inches Hg (1030.0 mb)
Winds: from the W (260 degrees) at 6 MPH (5 knots; 2.6 m/s)
Visibility: 6 or more miles (10+ km)
Ceiling: ceiling and visibility are OK
Clouds: unknown
Weather: no significant weather observed at this time

METAR text: FABL 231600Z VRB02KT CAVOK 22/M08 Q1030 NOSIG
Conditions at: FABL (BLOEMFONTEIN/HER, ZA) observed 1600 UTC 23 August 2019
Temperature: 22.0°C (72°F)
Dewpoint: -8.0°C (18°F) [RH = 13%]
Pressure (altimeter): 30.41 inches Hg (1030.0 mb)
Winds: variable direction winds at 2 MPH (2 knots; 1.0 m/s)
Visibility: 6 or more miles (10+ km)
Ceiling: ceiling and visibility are OK
Clouds: unknown
Weather: no significant weather observed at this time

METAR text: FABL 231500Z VRB02KT CAVOK 24/M10 Q1029 NOSIG
Conditions at: FABL (BLOEMFONTEIN/HER, ZA) observed 1500 UTC 23 August 2019
Temperature: 24.0°C (75°F)
Dewpoint: -10.0°C (14°F) [RH = 10%]
Pressure (altimeter): 30.38 inches Hg (1029.0 mb)
Winds: variable direction winds at 2 MPH (2 knots; 1.0 m/s)
Visibility: 6 or more miles (10+ km)
Ceiling: ceiling and visibility are OK
Clouds: unknown
Weather: no significant weather observed at this time

METAR text: FABL 231400Z 20006KT CAVOK 25/M09 Q1029 NOSIG
Conditions at: FABL (BLOEMFONTEIN/HER, ZA) observed 1400 UTC 23 August 2019
Temperature: 25.0°C (77°F)
Dewpoint: -9.0°C (16°F) [RH = 10%]
Pressure (altimeter): 30.38 inches Hg (1029.0 mb)
Winds: from the SSW (200 degrees) at 7 MPH (6 knots; 3.1 m/s)
Visibility: 6 or more miles (10+ km)
Ceiling: ceiling and visibility are OK
Clouds: unknown
Weather: no significant weather observed at this time

METAR text: FABL 231200Z 15005KT 100V270 CAVOK 24/M08 Q1030 NOSIG
Conditions at: FABL (BLOEMFONTEIN/HER, ZA) observed 1200 UTC 23 August 2019
Temperature: 24.0°C (75°F)
Dewpoint: -8.0°C (18°F) [RH = 11%]
Pressure (altimeter): 30.41 inches Hg (1030.0 mb)
Winds: from the SSE (150 degrees) at 6 MPH (5 knots; 2.6 m/s)
Visibility: 6 or more miles (10+ km)
Ceiling: ceiling and visibility are OK
Clouds: unknown
Weather: no significant weather observed at this time

METAR text: FABL 231100Z VRB06KT CAVOK 24/M09 Q1031 NOSIG
Conditions at: FABL (BLOEMFONTEIN/HER, ZA) observed 1100 UTC 23 August 2019
Temperature: 24.0°C (75°F)
Dewpoint: -9.0°C (16°F) [RH = 10%]
Pressure (altimeter): 30.44 inches Hg (1031.0 mb)
Winds: variable direction winds at 7 MPH (6 knots; 3.1 m/s)
Visibility: 6 or more miles (10+ km)
Ceiling: ceiling and visibility are OK
Clouds: unknown
Weather: no significant weather observed at this time

METAR text: FABL 231000Z 05003KT 310V120 CAVOK 23/M07 Q1031 NOSIG
Conditions at: FABL (BLOEMFONTEIN/HER, ZA) observed 1000 UTC 23 August 2019
Temperature: 23.0°C (73°F)
Dewpoint: -7.0°C (19°F) [RH = 13%]
Pressure (altimeter): 30.44 inches Hg (1031.0 mb)
Winds: from the NE (50 degrees) at 3 MPH (3 knots; 1.5 m/s)
Visibility: 6 or more miles (10+ km)
Ceiling: ceiling and visibility are OK
Clouds: unknown
Weather: no significant weather observed at this time

METAR text: FABL 230919Z VRB02KT CAVOK 23/M06 Q1032 NOSIG
Conditions at: FABL (BLOEMFONTEIN/HER, ZA) observed 0919 UTC 23 August 2019
Temperature: 23.0°C (73°F)
Dewpoint: -6.0°C (21°F) [RH = 14%]
Pressure (altimeter): 30.47 inches Hg (1032.0 mb)
Winds: variable direction winds at 2 MPH (2 knots; 1.0 m/s)
Visibility: 6 or more miles (10+ km)
Ceiling: ceiling and visibility are OK
Clouds: unknown
Weather: no significant weather observed at this time

METAR text: FABL 230900Z VRB02KT CAVOK 21/M05 Q1032 NOSIG
Conditions at: FABL (BLOEMFONTEIN/HER, ZA) observed 0900 UTC 23 August 2019
Temperature: 21.0°C (70°F)
Dewpoint: -5.0°C (23°F) [RH = 17%]
Pressure (altimeter): 30.47 inches Hg (1032.0 mb)
Winds: variable direction winds at 2 MPH (2 knots; 1.0 m/s)
Visibility: 6 or more miles (10+ km)
Ceiling: ceiling and visibility are OK
Clouds: unknown
Weather: no significant weather observed at this time

METAR text: FABL 230850Z VRB02KT CAVOK 22/M05 Q1032 NOSIG
Conditions at: FABL (BLOEMFONTEIN/HER, ZA) observed 0850 UTC 23 August 2019
Temperature: 22.0°C (72°F)
Dewpoint: -5.0°C (23°F) [RH = 16%]
Pressure (altimeter): 30.47 inches Hg (1032.0 mb)
Winds: variable direction winds at 2 MPH (2 knots; 1.0 m/s)
Visibility: 6 or more miles (10+ km)
Ceiling: ceiling and visibility are OK
Clouds: unknown
Weather: no significant weather observed at this time

METAR text: FABL 230810Z VRB02KT CAVOK 19/M05 Q1032 NOSIG
Conditions at: FABL (BLOEMFONTEIN/HER, ZA) observed 0810 UTC 23 August 2019
Temperature: 19.0°C (66°F)
Dewpoint: -5.0°C (23°F) [RH = 19%]
Pressure (altimeter): 30.47 inches Hg (1032.0 mb)
Winds: variable direction winds at 2 MPH (2 knots; 1.0 m/s)
Visibility: 6 or more miles (10+ km)
Ceiling: ceiling and visibility are OK
Clouds: unknown
Weather: no significant weather observed at this time

METAR text: FABL 230800Z VRB02KT CAVOK 17/M06 Q1032 NOSIG
Conditions at: FABL (BLOEMFONTEIN/HER, ZA) observed 0800 UTC 23 August 2019
Temperature: 17.0°C (63°F)
Dewpoint: -6.0°C (21°F) [RH = 20%]
Pressure (altimeter): 30.47 inches Hg (1032.0 mb)
Winds: variable direction winds at 2 MPH (2 knots; 1.0 m/s)
Visibility: 6 or more miles (10+ km)
Ceiling: ceiling and visibility are OK
Clouds: unknown
Weather: no significant weather observed at this time

METAR text: FABL 230744Z VRB01KT CAVOK 17/M05 Q1032 NOSIG
Conditions at: FABL (BLOEMFONTEIN/HER, ZA) observed 0744 UTC 23 August 2019
Temperature: 17.0°C (63°F)
Dewpoint: -5.0°C (23°F) [RH = 22%]
Pressure (altimeter): 30.47 inches Hg (1032.0 mb)
Winds: variable direction winds at 1 MPH (1 knots; 0.5 m/s)
Visibility: 6 or more miles (10+ km)
Ceiling: ceiling and visibility are OK
Clouds: unknown
Weather: no significant weather observed at this time

METAR text: FABL 230706Z VRB02KT CAVOK 14/M05 Q1032 NOSIG
Conditions at: FABL (BLOEMFONTEIN/HER, ZA) observed 0706 UTC 23 August 2019
Temperature: 14.0°C (57°F)
Dewpoint: -5.0°C (23°F) [RH = 26%]
Pressure (altimeter): 30.47 inches Hg (1032.0 mb)
Winds: variable direction winds at 2 MPH (2 knots; 1.0 m/s)
Visibility: 6 or more miles (10+ km)
Ceiling: ceiling and visibility are OK
Clouds: unknown
Weather: no significant weather observed at this time

METAR text: FABL 230700Z VRB02KT CAVOK 12/M06 Q1032 NOSIG
Conditions at: FABL (BLOEMFONTEIN/HER, ZA) observed 0700 UTC 23 August 2019
Temperature: 12.0°C (54°F)
Dewpoint: -6.0°C (21°F) [RH = 28%]
Pressure (altimeter): 30.47 inches Hg (1032.0 mb)
Winds: variable direction winds at 2 MPH (2 knots; 1.0 m/s)
Visibility: 6 or more miles (10+ km)
Ceiling: ceiling and visibility are OK
Clouds: unknown
Weather: no significant weather observed at this time

METAR text: FABL 230609Z 00000KT CAVOK 10/M05 Q1032 NOSIG
Conditions at: FABL (BLOEMFONTEIN/HER, ZA) observed 0609 UTC 23 August 2019
Temperature: 10.0°C (50°F)
Dewpoint: -5.0°C (23°F) [RH = 34%]
Pressure (altimeter): 30.47 inches Hg (1032.0 mb)
Winds: calm
Visibility: 6 or more miles (10+ km)
Ceiling: ceiling and visibility are OK
Clouds: unknown
Weather: no significant weather observed at this time

METAR text: FABL 230600Z 00000KT CAVOK 08/M04 Q1031 NOSIG
Conditions at: FABL (BLOEMFONTEIN/HER, ZA) observed 0600 UTC 23 August 2019
Temperature: 8.0°C (46°F)
Dewpoint: -4.0°C (25°F) [RH = 42%]
Pressure (altimeter): 30.44 inches Hg (1031.0 mb)
Winds: calm
Visibility: 6 or more miles (10+ km)
Ceiling: ceiling and visibility are OK
Clouds: unknown
Weather: no significant weather observed at this time

METAR text: FABL 230551Z 00000KT CAVOK 08/M04 Q1031 NOSIG
Conditions at: FABL (BLOEMFONTEIN/HER, ZA) observed 0551 UTC 23 August 2019
Temperature: 8.0°C (46°F)
Dewpoint: -4.0°C (25°F) [RH = 42%]
Pressure (altimeter): 30.44 inches Hg (1031.0 mb)
Winds: calm
Visibility: 6 or more miles (10+ km)
Ceiling: ceiling and visibility are OK
Clouds: unknown
Weather: no significant weather observed at this time

METAR text: FABL 230535Z 00000KT CAVOK 06/M03 Q1031 NOSIG
Conditions at: FABL (BLOEMFONTEIN/HER, ZA) observed 0535 UTC 23 August 2019
Temperature: 6.0°C (43°F)
Dewpoint: -3.0°C (27°F) [RH = 52%]
Pressure (altimeter): 30.44 inches Hg (1031.0 mb)
Winds: calm
Visibility: 6 or more miles (10+ km)
Ceiling: ceiling and visibility are OK
Clouds: unknown
Weather: no significant weather observed at this time

METAR text: FABL 230517Z 00000KT CAVOK 03/M04 Q1031 NOSIG
Conditions at: FABL (BLOEMFONTEIN/HER, ZA) observed 0517 UTC 23 August 2019
Temperature: 3.0°C (37°F)
Dewpoint: -4.0°C (25°F) [RH = 60%]
Pressure (altimeter): 30.44 inches Hg (1031.0 mb)
Winds: calm
Visibility: 6 or more miles (10+ km)
Ceiling: ceiling and visibility are OK
Clouds: unknown
Weather: no significant weather observed at this time

METAR text: FABL 230500Z 00000KT CAVOK 01/M05 Q1031 NOSIG
Conditions at: FABL (BLOEMFONTEIN/HER, ZA) observed 0500 UTC 23 August 2019
Temperature: 1.0°C (34°F)
Dewpoint: -5.0°C (23°F) [RH = 64%]
Pressure (altimeter): 30.44 inches Hg (1031.0 mb)
Winds: calm
Visibility: 6 or more miles (10+ km)
Ceiling: ceiling and visibility are OK
Clouds: unknown
Weather: no significant weather observed at this time

METAR text: FABL 230400Z VRB01KT CAVOK 00/M06 Q1030 NOSIG
Conditions at: FABL (BLOEMFONTEIN/HER, ZA) observed 0400 UTC 23 August 2019
Temperature: 0.0°C (32°F)
Dewpoint: -6.0°C (21°F) [RH = 64%]
Pressure (altimeter): 30.41 inches Hg (1030.0 mb)
Winds: variable direction winds at 1 MPH (1 knots; 0.5 m/s)
Visibility: 6 or more miles (10+ km)
Ceiling: ceiling and visibility are OK
Clouds: unknown
Weather: no significant weather observed at this time

METAR text: FABL 230300Z 23003KT CAVOK 02/M05 Q1030 NOSIG
Conditions at: FABL (BLOEMFONTEIN/HER, ZA) observed 0300 UTC 23 August 2019
Temperature: 2.0°C (36°F)
Dewpoint: -5.0°C (23°F) [RH = 60%]
Pressure (altimeter): 30.41 inches Hg (1030.0 mb)
Winds: from the SW (230 degrees) at 3 MPH (3 knots; 1.5 m/s)
Visibility: 6 or more miles (10+ km)
Ceiling: ceiling and visibility are OK
Clouds: unknown
Weather: no significant weather observed at this time

METAR text: FABL 230200Z AUTO 00000KT 9999 ///////// 02/M05 Q1030
Conditions at: FABL (BLOEMFONTEIN/HER, ZA) observed 0200 UTC 23 August 2019
Temperature: 2.0°C (36°F)
Dewpoint: -5.0°C (23°F) [RH = 60%]
Pressure (altimeter): 30.41 inches Hg (1030.0 mb)
Winds: calm
Visibility: 6 or more miles (10+ km)
Ceiling: unknown
Clouds: missing
Weather: no significant weather observed at this time

Forecast for: FABL (BLOEMFONTEIN/HER, ZA)
Text: TAF FABL 240400Z 2406/2506 VRB03KT CAVOK TX26/2412Z TN03/2504Z
Forecast period: 0600 UTC 24 August 2019 to 0600 UTC 25 August 2019
Forecast type: FROM: standard forecast or significant change
Winds: variable direction winds at 3 MPH (3 knots; 1.5 m/s)
Visibility: 6 or more miles 10+ km)
Ceiling: unknown
Clouds: missing
Weather: no significant weather forecast for this period